Sea Cloud II — 9HUE6 — position and weather

sailwx.info

Track history (hours):
 
Tides and Currents Weather Stations Pressure Air Temp Water Temp Dewpoint Dewpoint Depression Visibility Wind Speed Wind Dir Waves Ship Positions

Sea Cloud II

Ship's website: http://www.seacloud.com/en/the-ships/sea-cloud-ii.html

Last reported at 2014-Nov-04 21:26 UTC. Time now 2014-Nov-24 16:30 UTC.
Position N 36°01' W 005°25'.
Warning: this ship's position is 19 days out of date.

Length 117 m; draft 5.8 m.

Type: Passenger vessel. MMSI: 248953000.

Date/timePositionNaut miles runAvg speedWind from/ knotsBaromVisibWave heightAir tempDewpointWater temp
2014-Nov-04 21:26N 36°01' W 005°25'8 8.9
2014-Nov-04 20:33N 36°05' W 005°16'  
2014-Nov-01 21:25N 38°53' E 001°56'1112.1
2014-Nov-01 20:30N 39°01' E 002°06'1212.1
2014-Nov-01 19:33N 39°10' E 002°15'1212.3
2014-Nov-01 18:33N 39°19' E 002°25'1212.2
2014-Nov-01 17:34N 39°29' E 002°35'5 4.7
2014-Nov-01 16:31N 39°33' E 002°38'0 0.0
2014-Nov-01 15:31N 39°33' E 002°38'0 0.0
2014-Nov-01 14:31N 39°33' E 002°38'0 0.0
2014-Nov-01 13:31N 39°33' E 002°38'0 0.0
2014-Nov-01 12:31N 39°33' E 002°38'0 0.0
2014-Nov-01 11:31N 39°33' E 002°38'0 0.0
2014-Nov-01 10:31N 39°33' E 002°38'0 0.0
2014-Nov-01 09:31N 39°33' E 002°38'0 0.0
2014-Nov-01 08:31N 39°33' E 002°38'0 0.0
2014-Nov-01 07:28N 39°33' E 002°38'0 0.0
2014-Nov-01 06:32N 39°33' E 002°38'5 4.6
2014-Nov-01 05:33N 39°29' E 002°40'7 7.2
2014-Nov-01 04:33N 39°22' E 002°42'7 7.5
2014-Nov-01 03:33N 39°18' E 002°50'7 7.4
2014-Nov-01 02:33N 39°15' E 002°59'7 7.2
2014-Nov-01 01:32N 39°13' E 003°08'1010.0
2014-Nov-01 00:33N 39°13' E 003°21'1411.2
2014-Oct-31 23:18N 39°13' E 003°39'6 7.6
2014-Oct-31 22:29N 39°13' E 003°47'221 7.8
2014-Oct-30 18:11N 38°48' E 008°29'1312.4
2014-Oct-30 17:08N 38°48' E 008°46'712.4
2014-Oct-30 16:33N 38°50' E 008°55'5 4.6
2014-Oct-30 15:25N 38°53' E 009°00'3 3.1
2014-Oct-30 14:32N 38°55' E 009°03'1010.1
2014-Oct-30 13:33N 39°04' E 009°08'9 8.6
2014-Oct-30 12:33N 39°13' E 009°06'0 0.0
2014-Oct-30 11:33N 39°13' E 009°06'0 0.0
2014-Oct-30 10:33N 39°13' E 009°06'0 0.0
2014-Oct-30 09:33N 39°13' E 009°06'0 0.0
2014-Oct-30 08:33N 39°13' E 009°06'0 0.0
2014-Oct-30 07:33N 39°13' E 009°06'0 0.4
2014-Oct-30 06:33N 39°12' E 009°07'5 4.8
2014-Oct-30 05:33N 39°08' E 009°10'5 5.2
2014-Oct-30 04:33N 39°06' E 009°16'5 5.4
2014-Oct-30 03:33N 39°03' E 009°22'5 4.9
2014-Oct-30 02:30N 38°59' E 009°27'171 5.4
2014-Oct-28 18:33N 38°21' E 013°01'1212.3
2014-Oct-28 17:33N 38°18' E 013°17'1211.6
2014-Oct-28 16:33N 38°09' E 013°25'3 3.0
2014-Oct-28 15:33N 38°08' E 013°22'0 0.0
2014-Oct-28 14:33N 38°08' E 013°22'0 0.0
2014-Oct-28 13:33N 38°08' E 013°22'0 0.0
2014-Oct-28 12:33N 38°08' E 013°22'0 0.0
2014-Oct-28 11:33N 38°08' E 013°22'0 0.0
2014-Oct-28 10:33N 38°08' E 013°22'0 0.0
2014-Oct-28 09:33N 38°08' E 013°22'0 0.0
2014-Oct-28 08:33N 38°08' E 013°22'0 0.0
2014-Oct-28 07:33N 38°08' E 013°22'2 1.9
2014-Oct-28 06:34N 38°08' E 013°24'5 5.1
2014-Oct-28 05:34N 38°11' E 013°30'7 7.1
2014-Oct-28 04:34N 38°15' E 013°37'7 7.2
2014-Oct-28 03:34N 38°19' E 013°45'  
Track history (hours):
 
Tides and Currents Weather Stations Pressure Air Temp Water Temp Dewpoint Dewpoint Depression Visibility Wind Speed Wind Dir Waves Ship Positions

Sea Cloud II

Ship's website: http://www.seacloud.com/en/the-ships/sea-cloud-ii.html

Last reported at 2014-Nov-04 21:26 UTC. Time now 2014-Nov-24 16:30 UTC.
Position N 36°01' W 005°25'.
Warning: this ship's position is 19 days out of date.

Length 117 m; draft 5.8 m.

Type: Passenger vessel. MMSI: 248953000.

Date/timePositionNaut miles runAvg speedWind from/ knotsBaromVisibWave heightAir tempDewpointWater temp
2014-Nov-04 21:26N 36°01' W 005°25'8 8.9
2014-Nov-04 20:33N 36°05' W 005°16'  
2014-Nov-01 21:25N 38°53' E 001°56'1112.1
2014-Nov-01 20:30N 39°01' E 002°06'1212.1
2014-Nov-01 19:33N 39°10' E 002°15'1212.3
2014-Nov-01 18:33N 39°19' E 002°25'1212.2
2014-Nov-01 17:34N 39°29' E 002°35'5 4.7
2014-Nov-01 16:31N 39°33' E 002°38'0 0.0
2014-Nov-01 15:31N 39°33' E 002°38'0 0.0
2014-Nov-01 14:31N 39°33' E 002°38'0 0.0
2014-Nov-01 13:31N 39°33' E 002°38'0 0.0
2014-Nov-01 12:31N 39°33' E 002°38'0 0.0
2014-Nov-01 11:31N 39°33' E 002°38'0 0.0
2014-Nov-01 10:31N 39°33' E 002°38'0 0.0
2014-Nov-01 09:31N 39°33' E 002°38'0 0.0
2014-Nov-01 08:31N 39°33' E 002°38'0 0.0
2014-Nov-01 07:28N 39°33' E 002°38'0 0.0
2014-Nov-01 06:32N 39°33' E 002°38'5 4.6
2014-Nov-01 05:33N 39°29' E 002°40'7 7.2
2014-Nov-01 04:33N 39°22' E 002°42'7 7.5
2014-Nov-01 03:33N 39°18' E 002°50'7 7.4
2014-Nov-01 02:33N 39°15' E 002°59'7 7.2
2014-Nov-01 01:32N 39°13' E 003°08'1010.0
2014-Nov-01 00:33N 39°13' E 003°21'1411.2
2014-Oct-31 23:18N 39°13' E 003°39'6 7.6
2014-Oct-31 22:29N 39°13' E 003°47'221 7.8
2014-Oct-30 18:11N 38°48' E 008°29'1312.4
2014-Oct-30 17:08N 38°48' E 008°46'712.4
2014-Oct-30 16:33N 38°50' E 008°55'5 4.6
2014-Oct-30 15:25N 38°53' E 009°00'3 3.1
2014-Oct-30 14:32N 38°55' E 009°03'1010.1
2014-Oct-30 13:33N 39°04' E 009°08'9 8.6
2014-Oct-30 12:33N 39°13' E 009°06'0 0.0
2014-Oct-30 11:33N 39°13' E 009°06'0 0.0
2014-Oct-30 10:33N 39°13' E 009°06'0 0.0
2014-Oct-30 09:33N 39°13' E 009°06'0 0.0
2014-Oct-30 08:33N 39°13' E 009°06'0 0.0
2014-Oct-30 07:33N 39°13' E 009°06'0 0.4
2014-Oct-30 06:33N 39°12' E 009°07'5 4.8
2014-Oct-30 05:33N 39°08' E 009°10'5 5.2
2014-Oct-30 04:33N 39°06' E 009°16'5 5.4
2014-Oct-30 03:33N 39°03' E 009°22'5 4.9
2014-Oct-30 02:30N 38°59' E 009°27'171 5.4
2014-Oct-28 18:33N 38°21' E 013°01'1212.3
2014-Oct-28 17:33N 38°18' E 013°17'1211.6
2014-Oct-28 16:33N 38°09' E 013°25'3 3.0
2014-Oct-28 15:33N 38°08' E 013°22'0 0.0
2014-Oct-28 14:33N 38°08' E 013°22'0 0.0
2014-Oct-28 13:33N 38°08' E 013°22'0 0.0
2014-Oct-28 12:33N 38°08' E 013°22'0 0.0
2014-Oct-28 11:33N 38°08' E 013°22'0 0.0
2014-Oct-28 10:33N 38°08' E 013°22'0 0.0
2014-Oct-28 09:33N 38°08' E 013°22'0 0.0
2014-Oct-28 08:33N 38°08' E 013°22'0 0.0
2014-Oct-28 07:33N 38°08' E 013°22'2 1.9
2014-Oct-28 06:34N 38°08' E 013°24'5 5.1
2014-Oct-28 05:34N 38°11' E 013°30'7 7.1
2014-Oct-28 04:34N 38°15' E 013°37'7 7.2
2014-Oct-28 03:34N 38°19' E 013°45'  

Dump ship's entire track history